Time;durP1;ratioP1;P1;durP2;ratioP2;P2;SDS_P1;SDS_P2;PMS_P1;PMS_P2;Temp;Humidity;BMP_temperature;BMP_pressure;BME280_temperature;BME280_humidity;BME280_pressure;Samples;Min_cycle;Max_cycle;Signal;HPM_P1;HPM_P2
2023/07/14 00:01:47;;;;;;;0.73;0.73;;;18.20;99.40;;;;;;5136111;27;20504;-79
2023/07/14 00:04:20;;;;;;;1.90;1.20;;;18.20;99.10;;;;;;5136027;27;21015;-79
2023/07/14 00:06:47;;;;;;;1.20;0.70;;;18.20;99.50;;;;;;5136469;27;20426;-79
2023/07/14 00:09:19;;;;;;;2.00;0.90;;;18.20;99.70;;;;;;5136265;27;20449;-79
2023/07/14 00:11:46;;;;;;;0.70;0.70;;;18.10;99.70;;;;;;5136292;27;20439;-79
2023/07/14 00:14:14;;;;;;;1.77;0.63;;;18.10;99.90;;;;;;5135849;27;20858;-79
2023/07/14 00:16:41;;;;;;;2.10;0.70;;;18.00;99.90;;;;;;5135885;27;20450;-79
2023/07/14 00:19:12;;;;;;;1.13;0.83;;;18.00;99.90;;;;;;5135758;27;20957;-79
2023/07/14 00:21:40;;;;;;;1.67;0.80;;;18.00;99.90;;;;;;5135800;27;20495;-79
2023/07/14 00:24:12;;;;;;;1.13;0.80;;;18.00;99.90;;;;;;5135968;27;20904;-79
2023/07/14 00:26:41;;;;;;;1.57;0.70;;;17.90;99.90;;;;;;5136045;27;20502;-79
2023/07/14 00:29:34;;;;;;;1.43;1.07;;;17.90;99.90;;;;;;5135925;27;20435;-79
2023/07/14 00:32:02;;;;;;;2.03;1.00;;;17.80;99.90;;;;;;5135944;27;20839;-79
2023/07/14 00:37:15;;;;;;;1.43;1.00;;;17.70;99.90;;;;;;5135979;27;20917;-79
2023/07/14 00:39:44;;;;;;;0.50;0.50;;;17.70;99.90;;;;;;5135706;27;20485;-79
2023/07/14 00:42:21;;;;;;;0.97;0.70;;;17.60;99.90;;;;;;5135368;27;20438;-79
2023/07/14 00:44:55;;;;;;;0.90;0.90;;;17.60;99.90;;;;;;5135707;27;20854;-79
2023/07/14 00:47:29;;;;;;;4.30;0.70;;;17.60;99.90;;;;;;5135643;27;20422;-79
2023/07/14 00:49:59;;;;;;;2.90;1.27;;;17.60;99.90;;;;;;5136069;27;20874;-79
2023/07/14 00:52:41;;;;;;;0.60;0.60;;;17.60;99.90;;;;;;5134977;27;20967;-79
2023/07/14 00:55:35;;;;;;;1.13;0.80;;;17.60;99.90;;;;;;5135102;27;20462;-79
2023/07/14 00:58:03;;;;;;;0.70;0.70;;;17.60;99.90;;;;;;5135421;27;20430;-79
2023/07/14 01:00:31;;;;;;;0.70;0.70;;;17.60;99.90;;;;;;5135302;27;20562;-79
2023/07/14 01:02:58;;;;;;;1.33;0.70;;;17.60;99.90;;;;;;5134834;27;20477;-79
2023/07/14 01:05:27;;;;;;;7.37;1.00;;;17.50;99.90;;;;;;5135213;27;20443;-79
2023/07/14 01:07:56;;;;;;;0.83;0.83;;;17.50;99.90;;;;;;5135191;27;20495;-79
2023/07/14 01:10:27;;;;;;;4.30;0.67;;;17.40;99.90;;;;;;5134486;27;20454;-79
2023/07/14 01:12:58;;;;;;;1.10;1.00;;;17.40;99.90;;;;;;5134956;27;20430;-79
2023/07/14 01:15:25;;;;;;;0.90;0.90;;;17.30;99.90;;;;;;5135121;27;20831;-79
2023/07/14 01:17:53;;;;;;;6.33;0.83;;;17.30;99.90;;;;;;5135007;27;20449;-79
2023/07/14 01:20:21;;;;;;;0.90;0.80;;;17.30;99.90;;;;;;5134942;27;20466;-79
2023/07/14 01:23:02;;;;;;;0.80;0.80;;;17.20;99.90;;;;;;5134634;27;20473;-79
2023/07/14 01:25:38;;;;;;;1.80;0.70;;;17.20;99.90;;;;;;5134630;27;20431;-79
2023/07/14 01:28:08;;;;;;;0.90;0.90;;;17.10;99.90;;;;;;5134886;27;20430;-79
2023/07/14 01:30:36;;;;;;;1.50;1.40;;;17.10;99.90;;;;;;5134797;27;20519;-79
2023/07/14 01:33:04;;;;;;;0.70;0.70;;;17.10;99.90;;;;;;5134665;27;20812;-79
2023/07/14 01:35:34;;;;;;;1.53;0.60;;;17.10;99.90;;;;;;5134407;27;20461;-79
2023/07/14 01:38:00;;;;;;;1.73;0.70;;;17.10;99.90;;;;;;5134458;27;20457;-79
2023/07/14 01:40:28;;;;;;;0.87;0.87;;;17.00;99.90;;;;;;5134267;27;20473;-79
2023/07/14 01:42:59;;;;;;;1.10;1.00;;;17.00;99.90;;;;;;5134637;27;20442;-79
2023/07/14 01:45:32;;;;;;;6.00;1.07;;;17.00;99.90;;;;;;5134421;27;20407;-79
2023/07/14 01:48:02;;;;;;;3.47;1.33;;;17.00;99.90;;;;;;5134571;27;20437;-79
2023/07/14 01:50:33;;;;;;;0.93;0.90;;;16.90;99.90;;;;;;5134511;27;20514;-79
2023/07/14 01:53:04;;;;;;;1.10;0.73;;;16.90;99.90;;;;;;5134571;27;20429;-79
2023/07/14 01:55:34;;;;;;;1.17;0.70;;;16.90;99.90;;;;;;5134453;27;20461;-79
2023/07/14 01:58:06;;;;;;;1.10;0.90;;;16.90;99.90;;;;;;5134477;27;20491;-79
2023/07/14 02:00:36;;;;;;;0.70;0.70;;;16.90;99.90;;;;;;5134361;27;20462;-79
2023/07/14 02:03:05;;;;;;;1.73;1.03;;;16.80;99.90;;;;;;5133908;27;20500;-79
2023/07/14 02:05:35;;;;;;;0.80;0.80;;;16.70;99.90;;;;;;5134927;27;20523;-79
2023/07/14 02:08:04;;;;;;;0.83;0.83;;;16.70;99.90;;;;;;5134349;27;20426;-79
2023/07/14 02:10:32;;;;;;;1.00;0.87;;;16.70;99.90;;;;;;5134250;27;20470;-79
2023/07/14 02:13:00;;;;;;;0.77;0.77;;;16.70;99.90;;;;;;5134308;27;20442;-79
2023/07/14 02:15:31;;;;;;;2.00;1.10;;;16.70;99.90;;;;;;5134194;27;20478;-79
2023/07/14 02:18:00;;;;;;;1.63;0.70;;;16.70;99.90;;;;;;5133949;27;20445;-79
2023/07/14 02:20:32;;;;;;;0.80;0.80;;;16.60;99.90;;;;;;5134180;27;20462;-79
2023/07/14 02:23:01;;;;;;;1.57;1.03;;;16.60;99.90;;;;;;5134620;27;20902;-79
2023/07/14 02:25:33;;;;;;;0.83;0.83;;;16.60;99.90;;;;;;5138032;27;20453;-79
2023/07/14 02:27:59;;;;;;;0.60;0.60;;;16.60;99.90;;;;;;5138052;27;20937;-79
2023/07/14 02:30:29;;;;;;;1.77;1.00;;;16.60;99.90;;;;;;5138200;27;20470;-79
2023/07/14 02:33:01;;;;;;;1.17;0.90;;;16.60;99.90;;;;;;5137890;27;20968;-79
2023/07/14 02:35:33;;;;;;;0.77;0.67;;;16.60;99.90;;;;;;5138129;27;20466;-79
2023/07/14 02:38:04;;;;;;;0.80;0.80;;;16.50;99.90;;;;;;5138183;27;20438;-79
2023/07/14 02:40:36;;;;;;;0.80;0.80;;;16.50;99.90;;;;;;5138060;27;20466;-79
2023/07/14 02:43:05;;;;;;;3.53;1.00;;;16.40;99.90;;;;;;5137767;27;20945;-79
2023/07/14 02:45:35;;;;;;;1.03;0.90;;;16.40;99.90;;;;;;5137680;27;20446;-79
2023/07/14 02:48:08;;;;;;;1.30;1.03;;;16.40;99.90;;;;;;5137965;27;20441;-79
2023/07/14 02:50:35;;;;;;;0.80;0.80;;;16.40;99.90;;;;;;5137859;27;20519;-79
2023/07/14 02:53:02;;;;;;;0.90;0.67;;;16.40;99.90;;;;;;5137877;27;20444;-79
2023/07/14 02:55:29;;;;;;;1.13;0.90;;;16.30;99.90;;;;;;5137725;27;20485;-79
2023/07/14 02:57:55;;;;;;;1.10;1.00;;;16.30;99.90;;;;;;5137480;27;20949;-80
2023/07/14 03:00:22;;;;;;;0.60;0.60;;;16.30;99.90;;;;;;5137641;27;20477;-80
2023/07/14 03:02:49;;;;;;;2.00;0.80;;;16.30;99.90;;;;;;5137173;27;20477;-80
2023/07/14 03:05:17;;;;;;;0.90;0.70;;;16.30;99.90;;;;;;5137312;27;20937;-80
2023/07/14 03:07:44;;;;;;;0.80;0.77;;;16.20;99.90;;;;;;5137560;27;20441;-80
2023/07/14 03:10:11;;;;;;;0.73;0.67;;;16.20;99.90;;;;;;5137233;27;20457;-80
2023/07/14 03:12:38;;;;;;;0.80;0.60;;;16.20;99.90;;;;;;5137150;27;20453;-79
2023/07/14 03:15:07;;;;;;;0.90;0.90;;;16.10;99.90;;;;;;5137324;27;20466;-79
2023/07/14 03:17:34;;;;;;;1.83;0.70;;;16.10;99.90;;;;;;5137416;27;20438;-79
2023/07/14 03:20:01;;;;;;;2.13;0.93;;;16.10;99.90;;;;;;5137275;27;20457;-79
2023/07/14 03:22:30;;;;;;;0.70;0.70;;;16.10;99.90;;;;;;5137309;27;20453;-79
2023/07/14 03:24:58;;;;;;;0.97;0.97;;;16.00;99.90;;;;;;5137263;27;20476;-79
2023/07/14 03:27:25;;;;;;;1.03;0.93;;;16.00;99.90;;;;;;5136895;27;20964;-79
2023/07/14 03:29:51;;;;;;;1.30;0.93;;;16.00;99.90;;;;;;5137059;27;20466;-79
2023/07/14 03:32:18;;;;;;;0.87;0.83;;;16.00;99.90;;;;;;5136794;27;20972;-78
2023/07/14 03:34:45;;;;;;;1.27;0.97;;;16.00;99.90;;;;;;5136169;27;20865;-79
2023/07/14 03:37:11;;;;;;;0.70;0.70;;;16.00;99.90;;;;;;5137012;27;20442;-79
2023/07/14 03:39:39;;;;;;;9.43;1.10;;;15.90;99.90;;;;;;5136584;27;21004;-79
2023/07/14 03:42:06;;;;;;;2.07;0.80;;;15.90;99.90;;;;;;5136909;27;20442;-79
2023/07/14 03:44:34;;;;;;;2.80;0.87;;;15.90;99.90;;;;;;5136882;27;20453;-79
2023/07/14 03:47:02;;;;;;;2.20;0.90;;;15.90;99.90;;;;;;5136501;27;20482;-79
2023/07/14 03:49:29;;;;;;;1.10;1.00;;;15.90;99.90;;;;;;5136682;27;20462;-79
2023/07/14 03:51:56;;;;;;;0.90;0.90;;;16.00;99.90;;;;;;5136422;27;20458;-79
2023/07/14 03:54:23;;;;;;;0.83;0.70;;;16.00;99.90;;;;;;5136365;27;20476;-79
2023/07/14 03:56:52;;;;;;;1.27;0.90;;;16.00;99.90;;;;;;5136643;27;20442;-79
2023/07/14 03:59:19;;;;;;;1.57;1.40;;;16.10;99.90;;;;;;5136459;27;20452;-79
2023/07/14 04:01:46;;;;;;;0.77;0.70;;;16.10;99.90;;;;;;5136014;27;21015;-79
2023/07/14 04:04:12;;;;;;;2.10;1.20;;;16.10;99.90;;;;;;5136145;27;20953;-79
2023/07/14 04:06:39;;;;;;;2.00;1.17;;;16.20;99.90;;;;;;5136121;27;20965;-79
2023/07/14 04:09:07;;;;;;;1.20;1.10;;;16.20;99.90;;;;;;5136282;27;20441;-79
2023/07/14 04:11:34;;;;;;;1.07;0.97;;;16.30;99.90;;;;;;5136317;27;20846;-79
2023/07/14 04:14:02;;;;;;;0.90;0.90;;;16.40;99.90;;;;;;5136215;27;20586;-79
2023/07/14 04:16:29;;;;;;;1.77;1.20;;;16.40;99.90;;;;;;5136233;27;20461;-79
2023/07/14 04:18:55;;;;;;;1.37;0.60;;;16.50;99.90;;;;;;5136166;27;20457;-79
2023/07/14 04:21:24;;;;;;;0.67;0.67;;;16.60;99.90;;;;;;5136056;27;20485;-79
2023/07/14 04:23:52;;;;;;;3.60;0.67;;;16.60;99.90;;;;;;5136096;27;20788;-79
2023/07/14 04:26:19;;;;;;;1.00;1.00;;;16.70;99.90;;;;;;5136019;27;20443;-79
2023/07/14 04:28:45;;;;;;;1.87;1.00;;;16.80;99.90;;;;;;5135970;27;20441;-79
2023/07/14 04:31:13;;;;;;;0.90;0.90;;;16.80;99.90;;;;;;5135616;27;20976;-79
2023/07/14 04:33:43;;;;;;;1.27;1.17;;;16.90;99.90;;;;;;5135905;27;20442;-79
2023/07/14 04:36:09;;;;;;;1.53;0.97;;;16.90;99.90;;;;;;5135793;27;20478;-79
2023/07/14 04:38:36;;;;;;;1.47;1.37;;;16.90;99.90;;;;;;5135492;27;20933;-79
2023/07/14 04:41:03;;;;;;;4.60;1.23;;;17.00;99.90;;;;;;5135349;27;20985;-79
2023/07/14 04:43:32;;;;;;;1.90;0.70;;;17.00;99.90;;;;;;5135708;27;20468;-79
2023/07/14 04:45:59;;;;;;;1.20;0.80;;;17.10;99.90;;;;;;5134838;27;20807;-79
2023/07/14 04:48:27;;;;;;;7.13;1.50;;;17.20;99.90;;;;;;5135596;27;20449;-79
2023/07/14 04:50:54;;;;;;;1.47;1.30;;;17.20;99.90;;;;;;5135482;27;20465;-79
2023/07/14 04:53:21;;;;;;;1.10;1.00;;;17.30;99.90;;;;;;5135523;27;20445;-81
2023/07/14 04:55:48;;;;;;;2.30;1.60;;;17.30;99.90;;;;;;5135403;27;20477;-81
2023/07/14 04:58:17;;;;;;;4.00;0.97;;;17.30;99.90;;;;;;5135095;27;20449;-81
2023/07/14 05:00:47;;;;;;;3.83;0.80;;;17.30;99.90;;;;;;5135127;27;20462;-80
2023/07/14 05:03:15;;;;;;;1.47;1.37;;;17.30;99.90;;;;;;5135048;27;20430;-81
2023/07/14 05:05:43;;;;;;;1.37;1.20;;;17.30;99.90;;;;;;5134940;27;20941;-80
2023/07/14 05:08:10;;;;;;;2.23;1.30;;;17.30;99.90;;;;;;5135201;27;20449;-80
2023/07/14 05:10:38;;;;;;;1.33;1.03;;;17.40;99.90;;;;;;5135045;27;20466;-80
2023/07/14 05:13:06;;;;;;;1.83;0.80;;;17.50;99.90;;;;;;5135094;27;20489;-80
2023/07/14 05:15:33;;;;;;;0.80;0.80;;;17.50;99.90;;;;;;5135052;27;20874;-80
2023/07/14 05:18:01;;;;;;;3.40;1.43;;;17.60;99.90;;;;;;5135025;27;20476;-80
2023/07/14 05:20:28;;;;;;;1.27;1.13;;;17.70;99.90;;;;;;5134613;27;21031;-80
2023/07/14 05:22:56;;;;;;;1.50;1.40;;;17.80;99.90;;;;;;5134946;27;20446;-80
2023/07/14 05:25:23;;;;;;;2.80;1.10;;;17.90;99.90;;;;;;5134938;27;20438;-80
2023/07/14 05:27:50;;;;;;;1.93;1.47;;;18.00;99.90;;;;;;5134875;27;20446;-80
2023/07/14 05:30:20;;;;;;;3.50;1.60;;;18.10;99.90;;;;;;5134752;27;20469;-80
2023/07/14 05:32:48;;;;;;;3.10;1.30;;;18.20;99.90;;;;;;5134750;27;20772;-80
2023/07/14 05:35:15;;;;;;;1.70;1.10;;;18.30;99.90;;;;;;5134739;27;20477;-80
2023/07/14 05:37:42;;;;;;;1.40;1.30;;;18.40;99.90;;;;;;5134722;27;20446;-80
2023/07/14 05:40:12;;;;;;;1.30;1.00;;;18.50;99.90;;;;;;5134625;27;20469;-80
2023/07/14 05:42:39;;;;;;;1.07;0.80;;;18.60;99.90;;;;;;5134307;27;20450;-80
2023/07/14 05:45:07;;;;;;;1.33;1.00;;;18.70;99.90;;;;;;5134322;27;20442;-80
2023/07/14 05:47:36;;;;;;;1.23;1.13;;;18.80;99.90;;;;;;5134545;27;20450;-80
2023/07/14 05:50:04;;;;;;;1.30;1.17;;;18.90;99.90;;;;;;5134494;27;20470;-80
2023/07/14 05:52:30;;;;;;;1.80;1.27;;;19.00;99.90;;;;;;5134519;27;20442;-80
2023/07/14 05:54:57;;;;;;;1.03;0.83;;;19.10;99.90;;;;;;5134390;27;20561;-80
2023/07/14 05:57:25;;;;;;;1.90;1.20;;;19.10;99.90;;;;;;5133954;27;20449;-80
2023/07/14 05:59:53;;;;;;;1.30;1.30;;;19.10;99.90;;;;;;5134062;27;20969;-81
2023/07/14 06:02:19;;;;;;;1.30;1.20;;;19.20;99.90;;;;;;5133980;27;20486;-80
2023/07/14 06:04:46;;;;;;;2.60;0.93;;;19.20;99.90;;;;;;5134352;27;20442;-80
2023/07/14 06:07:14;;;;;;;2.80;1.43;;;19.20;99.90;;;;;;5134927;27;20498;-81
2023/07/14 06:09:42;;;;;;;1.30;1.20;;;19.20;99.90;;;;;;5134299;27;20465;-81
2023/07/14 06:12:11;;;;;;;1.13;1.00;;;19.30;99.90;;;;;;5134406;27;20450;-80
2023/07/14 06:14:40;;;;;;;1.13;1.00;;;19.40;99.90;;;;;;5134121;27;20442;-81
2023/07/14 06:17:08;;;;;;;1.13;0.93;;;19.40;99.90;;;;;;5134263;27;20442;-80
2023/07/14 06:19:35;;;;;;;3.80;1.20;;;19.50;99.90;;;;;;5134145;27;20473;-80
2023/07/14 06:22:04;;;;;;;1.20;1.10;;;19.60;99.90;;;;;;5134278;27;20469;-80
2023/07/14 06:24:31;;;;;;;2.67;1.77;;;19.80;99.90;;;;;;5134222;27;20454;-81
2023/07/14 06:26:58;;;;;;;2.53;1.17;;;19.90;99.90;;;;;;5134141;27;20446;-81
2023/07/14 06:29:25;;;;;;;0.93;0.90;;;20.10;99.90;;;;;;5133784;27;20540;-80
2023/07/14 06:31:53;;;;;;;2.87;0.80;;;20.20;99.90;;;;;;5134130;27;20446;-80
2023/07/14 06:34:19;;;;;;;1.00;1.00;;;20.40;99.90;;;;;;5134054;27;20442;-81
2023/07/14 06:36:46;;;;;;;1.00;0.90;;;20.60;99.90;;;;;;5134013;27;20841;-80
2023/07/14 06:39:13;;;;;;;1.07;0.97;;;20.80;99.90;;;;;;5133985;27;20438;-80
2023/07/14 06:41:40;;;;;;;2.13;0.90;;;21.10;99.90;;;;;;5134105;27;20434;-80
2023/07/14 06:44:08;;;;;;;1.33;0.90;;;21.30;99.90;;;;;;5134023;27;20446;-80
2023/07/14 06:46:34;;;;;;;1.27;1.17;;;21.60;99.90;;;;;;5133700;27;20799;-80
2023/07/14 06:49:03;;;;;;;0.90;0.90;;;21.80;99.90;;;;;;5133693;27;20422;-81
2023/07/14 06:51:30;;;;;;;1.93;0.73;;;21.90;99.90;;;;;;5133729;27;20425;-81
2023/07/14 06:53:57;;;;;;;1.00;0.80;;;22.20;99.90;;;;;;5133654;27;20948;-81
2023/07/14 06:56:24;;;;;;;0.67;0.67;;;22.40;99.90;;;;;;5133866;27;20484;-82
2023/07/14 06:58:51;;;;;;;1.70;0.67;;;22.50;99.90;;;;;;5133568;27;20446;-82
2023/07/14 07:01:17;;;;;;;2.60;1.33;;;22.60;99.90;;;;;;5133276;27;20992;-81
2023/07/14 07:03:44;;;;;;;0.90;0.90;;;22.50;99.90;;;;;;5133606;27;20909;-82
2023/07/14 07:06:16;;;;;;;0.73;0.73;;;22.50;99.90;;;;;;5133866;27;20437;-82
2023/07/14 07:08:43;;;;;;;0.77;0.77;;;22.60;99.90;;;;;;5133806;27;20421;-82
2023/07/14 07:11:10;;;;;;;1.47;1.10;;;22.70;99.70;;;;;;5137518;27;20465;-82
2023/07/14 07:13:37;;;;;;;0.90;0.90;;;22.70;99.90;;;;;;5137498;27;20442;-82
2023/07/14 07:16:04;;;;;;;1.10;0.70;;;22.80;99.80;;;;;;5137379;27;20480;-82
2023/07/14 07:18:31;;;;;;;0.90;0.90;;;22.90;99.50;;;;;;5137348;27;20473;-82
2023/07/14 07:20:58;;;;;;;0.90;0.90;;;22.90;98.50;;;;;;5137273;27;20484;-82
2023/07/14 07:23:27;;;;;;;0.67;0.67;;;22.90;99.30;;;;;;5137326;27;20446;-83
2023/07/14 07:25:56;;;;;;;0.80;0.80;;;23.00;98.30;;;;;;5137311;27;20469;-82
2023/07/14 07:28:23;;;;;;;2.47;0.70;;;23.10;98.20;;;;;;5136881;27;20449;-82
2023/07/14 07:30:50;;;;;;;1.50;0.90;;;23.20;98.40;;;;;;5137090;27;20468;-82
2023/07/14 07:33:17;;;;;;;0.97;0.80;;;23.40;97.60;;;;;;5137125;27;20188;-81
2023/07/14 07:35:44;;;;;;;0.60;0.60;;;23.50;98.30;;;;;;5137002;27;20226;-81
2023/07/14 07:38:11;;;;;;;4.43;0.93;;;23.70;97.90;;;;;;5136993;27;20207;-82
2023/07/14 07:40:40;;;;;;;0.80;0.80;;;23.80;97.20;;;;;;5136852;27;20224;-82
2023/07/14 07:43:06;;;;;;;0.60;0.60;;;24.00;97.10;;;;;;5136991;27;20204;-82
2023/07/14 07:45:33;;;;;;;2.13;0.80;;;24.00;96.70;;;;;;5136625;27;20200;-82
2023/07/14 07:48:00;;;;;;;2.35;1.15;;;24.00;96.40;;;;;;5136856;27;20200;-82
2023/07/14 07:50:27;;;;;;;0.80;0.80;;;24.30;96.40;;;;;;5136761;27;20228;-82
2023/07/14 07:52:54;;;;;;;0.90;0.90;;;24.50;95.90;;;;;;5136788;27;20199;-83
2023/07/14 07:55:21;;;;;;;0.80;0.70;;;24.50;94.30;;;;;;5136616;27;20220;-82
2023/07/14 07:57:49;;;;;;;0.88;0.80;;;24.30;94.00;;;;;;5136607;27;20211;-82
2023/07/14 08:00:16;;;;;;;0.65;0.65;;;24.40;93.10;;;;;;5136424;27;20242;-82
2023/07/14 08:02:43;;;;;;;0.73;0.70;;;24.50;93.50;;;;;;5136093;27;20703;-81
2023/07/14 08:05:12;;;;;;;1.42;0.82;;;24.70;92.90;;;;;;5136213;27;20667;-81
2023/07/14 08:07:39;;;;;;;0.65;0.65;;;24.80;92.40;;;;;;5136444;27;20200;-82
2023/07/14 08:10:07;;;;;;;1.50;0.90;;;25.00;92.80;;;;;;5136343;27;20216;-81
2023/07/14 08:12:33;;;;;;;1.35;1.23;;;25.00;92.00;;;;;;5136366;27;20231;-83
2023/07/14 08:15:02;;;;;;;0.60;0.60;;;25.10;92.00;;;;;;5136010;27;20208;-82
2023/07/14 08:17:31;;;;;;;1.13;0.60;;;25.10;90.80;;;;;;5136229;27;20304;-82
2023/07/14 08:19:58;;;;;;;2.05;0.80;;;25.20;91.40;;;;;;5136112;27;20220;-82
2023/07/14 08:22:26;;;;;;;3.25;0.70;;;25.30;91.30;;;;;;5135821;27;20728;-83
2023/07/14 08:24:57;;;;;;;0.80;0.80;;;25.10;90.50;;;;;;5135843;27;20728;-82
2023/07/14 08:27:24;;;;;;;0.70;0.70;;;25.10;90.90;;;;;;5135819;27;20640;-82
2023/07/14 08:29:53;;;;;;;1.50;0.75;;;25.40;90.20;;;;;;5135993;27;20220;-81
2023/07/14 08:32:21;;;;;;;1.13;1.02;;;25.60;90.70;;;;;;5136238;27;20199;-82
2023/07/14 08:34:48;;;;;;;1.05;0.70;;;25.70;90.60;;;;;;5135880;27;20195;-81
2023/07/14 08:37:15;;;;;;;0.63;0.63;;;25.70;89.20;;;;;;5135851;27;20231;-82
2023/07/14 08:39:42;;;;;;;1.98;0.70;;;25.60;89.60;;;;;;5135771;27;20266;-82
2023/07/14 08:42:32;;;;;;;1.25;0.75;;;25.50;89.80;;;;;;5135775;27;20204;-81
2023/07/14 08:45:11;;;;;;;0.70;0.70;;;25.60;89.50;;;;;;5135780;27;20188;-82
2023/07/14 08:47:49;;;;;;;0.80;0.80;;;25.60;89.20;;;;;;5135682;27;20187;-81
2023/07/14 08:50:21;;;;;;;0.60;0.60;;;25.80;90.30;;;;;;5135610;27;20223;-81
2023/07/14 08:52:52;;;;;;;0.70;0.70;;;25.90;88.90;;;;;;5135775;27;20191;-80
2023/07/14 08:55:23;;;;;;;1.75;0.93;;;26.00;89.00;;;;;;5135397;27;20244;-81
2023/07/14 08:57:52;;;;;;;0.70;0.70;;;26.10;87.60;;;;;;5136035;27;20539;-81
2023/07/14 09:00:26;;;;;;;2.28;1.00;;;25.90;88.00;;;;;;5135035;27;20718;-81
2023/07/14 09:03:07;;;;;;;0.70;0.60;;;25.80;89.30;;;;;;5134886;27;20227;-80
2023/07/14 09:05:40;;;;;;;1.58;0.80;;;25.80;90.10;;;;;;5135343;27;20191;-81
2023/07/14 09:08:10;;;;;;;0.85;0.82;;;25.80;88.10;;;;;;5134976;27;20663;-81
2023/07/14 09:10:50;;;;;;;0.85;0.85;;;25.60;88.50;;;;;;5135236;27;20228;-80
2023/07/14 09:13:32;;;;;;;0.95;0.80;;;25.50;90.10;;;;;;5134915;27;20639;-82
2023/07/14 09:15:59;;;;;;;0.70;0.70;;;25.40;89.70;;;;;;5134792;27;20203;-81
2023/07/14 09:18:42;;;;;;;0.93;0.80;;;25.40;87.10;;;;;;5135060;27;20204;-80
2023/07/14 09:21:16;;;;;;;0.70;0.70;;;25.40;87.10;;;;;;5135027;27;20219;-81
2023/07/14 09:24:06;;;;;;;0.90;0.85;;;25.40;86.50;;;;;;5134746;27;20643;-81
2023/07/14 09:26:37;;;;;;;2.20;0.95;;;25.50;86.00;;;;;;5135037;27;20577;-80
2023/07/14 09:29:12;;;;;;;1.60;0.90;;;25.60;86.10;;;;;;5134804;27;20301;-80
2023/07/14 09:31:44;;;;;;;0.60;0.60;;;25.70;87.90;;;;;;5134174;27;20187;-80
2023/07/14 09:34:17;;;;;;;0.70;0.70;;;25.70;89.30;;;;;;5134531;27;20184;-81
2023/07/14 09:36:44;;;;;;;0.80;0.80;;;25.80;88.60;;;;;;5134606;27;20215;-81
2023/07/14 09:39:20;;;;;;;1.13;0.88;;;25.80;87.70;;;;;;5134331;27;20667;-80
2023/07/14 09:41:50;;;;;;;0.80;0.80;;;25.70;87.80;;;;;;5134726;27;20188;-81
2023/07/14 09:44:17;;;;;;;0.95;0.80;;;25.60;85.60;;;;;;5134920;27;20580;-81
2023/07/14 09:46:48;;;;;;;0.88;0.73;;;25.40;86.00;;;;;;5134652;27;20191;-80
2023/07/14 09:49:23;;;;;;;0.60;0.60;;;25.40;86.20;;;;;;5134588;27;20189;-81
2023/07/14 09:52:10;;;;;;;1.33;0.88;;;25.20;84.60;;;;;;5134625;27;20636;-80
2023/07/14 09:54:52;;;;;;;2.75;0.80;;;25.20;85.10;;;;;;5134595;27;20180;-80
2023/07/14 09:57:21;;;;;;;3.25;1.15;;;25.10;84.70;;;;;;5134126;27;20230;-80
2023/07/14 09:59:54;;;;;;;0.90;0.90;;;25.10;84.30;;;;;;5134384;27;20269;-80
2023/07/14 10:02:27;;;;;;;0.75;0.60;;;25.00;83.60;;;;;;5134016;27;20228;-79
2023/07/14 10:05:00;;;;;;;1.25;0.80;;;25.00;84.00;;;;;;5134782;27;20180;-80
2023/07/14 10:07:41;;;;;;;1.73;1.42;;;24.90;85.60;;;;;;5134441;27;20180;-80
2023/07/14 10:10:14;;;;;;;1.13;1.02;;;25.00;84.90;;;;;;5134416;27;20220;-80
2023/07/14 10:12:46;;;;;;;1.02;0.93;;;25.10;85.20;;;;;;5134353;27;20184;-80
2023/07/14 10:15:34;;;;;;;2.70;0.80;;;25.00;86.80;;;;;;5134342;27;20240;-79
2023/07/14 10:18:03;;;;;;;0.88;0.85;;;25.10;86.80;;;;;;5134263;27;20620;-79
2023/07/14 10:20:33;;;;;;;0.70;0.70;;;25.10;85.40;;;;;;5135008;27;20216;-79
2023/07/14 10:23:01;;;;;;;1.40;1.10;;;25.20;85.10;;;;;;5134253;27;20211;-79
2023/07/14 10:25:29;;;;;;;0.80;0.80;;;25.20;85.00;;;;;;5134169;27;20204;-80
2023/07/14 10:28:00;;;;;;;0.60;0.60;;;25.20;84.80;;;;;;5134209;27;20203;-80
2023/07/14 10:30:56;;;;;;;1.52;1.02;;;25.20;85.60;;;;;;5134150;27;20220;-80
2023/07/14 10:33:26;;;;;;;1.02;0.80;;;25.40;84.80;;;;;;5133870;27;20184;-79
2023/07/14 10:36:00;;;;;;;1.02;0.75;;;25.50;84.30;;;;;;5134055;27;20200;-79
2023/07/14 10:38:32;;;;;;;0.80;0.80;;;25.60;83.90;;;;;;5133834;27;20188;-80
2023/07/14 10:41:02;;;;;;;2.47;0.95;;;25.70;84.20;;;;;;5134009;27;20223;-79
2023/07/14 10:43:33;;;;;;;0.70;0.70;;;25.80;82.20;;;;;;5134472;27;20196;-80
2023/07/14 10:46:06;;;;;;;1.52;0.75;;;25.70;83.80;;;;;;5138092;27;20211;-80
2023/07/14 10:48:38;;;;;;;1.00;0.90;;;25.80;81.50;;;;;;5137729;27;20206;-79
2023/07/14 10:51:19;;;;;;;0.93;0.80;;;25.70;81.10;;;;;;5137642;27;20224;-80
2023/07/14 10:53:55;;;;;;;1.75;1.05;;;25.60;82.50;;;;;;5137943;27;20596;-80
2023/07/14 10:56:25;;;;;;;1.10;0.90;;;25.60;83.70;;;;;;5137793;27;20582;-80
2023/07/14 10:58:55;;;;;;;1.05;0.88;;;25.60;82.30;;;;;;5137907;27;20191;-81
2023/07/14 11:01:35;;;;;;;0.80;0.80;;;25.50;82.80;;;;;;5137222;27;20235;-80
2023/07/14 11:04:15;;;;;;;0.88;0.88;;;25.50;82.60;;;;;;5137746;27;20188;-80
2023/07/14 11:06:46;;;;;;;1.25;1.15;;;25.30;82.70;;;;;;5137688;27;20187;-80
2023/07/14 11:09:14;;;;;;;0.70;0.70;;;25.20;83.60;;;;;;5137318;27;20661;-80
2023/07/14 11:11:49;;;;;;;0.60;0.60;;;25.30;85.50;;;;;;5137511;27;20226;-80
2023/07/14 11:14:28;;;;;;;1.00;0.80;;;25.30;84.50;;;;;;5138134;27;20240;-80
2023/07/14 11:17:03;;;;;;;1.13;0.70;;;25.40;83.50;;;;;;5137459;27;20196;-80
2023/07/14 11:19:45;;;;;;;3.60;0.68;;;25.40;83.20;;;;;;5137361;27;20215;-79
2023/07/14 11:22:21;;;;;;;2.35;0.75;;;25.40;81.80;;;;;;5137604;27;20203;-79
2023/07/14 11:25:02;;;;;;;1.95;1.05;;;25.40;82.60;;;;;;5137337;27;20191;-79
2023/07/14 11:27:34;;;;;;;1.55;0.75;;;25.40;82.60;;;;;;5137307;27;20177;-80
2023/07/14 11:30:06;;;;;;;0.90;0.90;;;25.50;81.80;;;;;;5137181;27;20297;-80
2023/07/14 11:32:40;;;;;;;0.60;0.60;;;25.70;82.50;;;;;;5136886;27;20184;-80
2023/07/14 11:35:13;;;;;;;0.80;0.80;;;25.90;81.30;;;;;;5137054;27;20180;-79
2023/07/14 11:37:47;;;;;;;1.20;0.70;;;26.00;80.10;;;;;;5136686;27;20675;-80
2023/07/14 11:40:20;;;;;;;0.80;0.80;;;25.90;81.60;;;;;;5136683;27;20597;-79
2023/07/14 11:42:52;;;;;;;0.82;0.82;;;25.90;81.10;;;;;;5136702;27;20229;-80
2023/07/14 11:45:22;;;;;;;1.35;0.90;;;25.90;82.80;;;;;;5136668;27;20185;-79
2023/07/14 11:47:49;;;;;;;0.80;0.80;;;26.00;82.10;;;;;;5136855;27;20204;-80
2023/07/14 11:50:28;;;;;;;1.20;0.75;;;26.00;82.20;;;;;;5136449;27;20729;-80
2023/07/14 11:53:02;;;;;;;2.08;1.00;;;26.00;80.70;;;;;;5136768;27;20207;-80
2023/07/14 11:55:31;;;;;;;0.90;0.90;;;26.00;81.00;;;;;;5136427;27;20245;-80
2023/07/14 11:58:16;;;;;;;1.35;0.60;;;26.00;80.80;;;;;;5136533;27;20220;-80
2023/07/14 12:00:47;;;;;;;1.25;0.93;;;26.10;79.90;;;;;;5136375;27;20220;-80
2023/07/14 12:03:27;;;;;;;1.10;1.02;;;26.10;79.80;;;;;;5136647;27;20215;-80
2023/07/14 12:06:28;;;;;;;0.70;0.70;;;26.20;80.40;;;;;;5137292;27;20212;-80
2023/07/14 12:09:10;;;;;;;1.10;1.00;;;26.20;79.80;;;;;;5082875;27;20613;-80
2023/07/14 12:11:50;;;;;;;0.90;0.90;;;26.20;77.80;;;;;;5136091;27;20206;-80
2023/07/14 12:14:29;;;;;;;0.80;0.80;;;26.10;78.20;;;;;;5136460;27;20195;-80
2023/07/14 12:16:57;;;;;;;1.98;0.80;;;26.00;78.10;;;;;;5135997;27;20219;-80
2023/07/14 12:19:26;;;;;;;0.75;0.75;;;26.00;78.30;;;;;;5135807;27;20575;-79
2023/07/14 12:22:03;;;;;;;0.95;0.95;;;26.00;78.40;;;;;;5136190;27;20227;-79
2023/07/14 12:24:36;;;;;;;0.80;0.80;;;26.10;78.90;;;;;;5136183;27;20221;-79
2023/07/14 12:27:19;;;;;;;0.80;0.80;;;26.20;77.10;;;;;;5135822;27;20177;-80
2023/07/14 12:29:49;;;;;;;1.33;1.00;;;26.10;79.40;;;;;;5136033;27;20220;-80
2023/07/14 12:32:18;;;;;;;0.93;0.93;;;26.10;78.30;;;;;;5136044;27;20185;-80
2023/07/14 12:34:46;;;;;;;0.82;0.80;;;26.20;78.40;;;;;;5135603;27;20572;-80
2023/07/14 12:37:17;;;;;;;0.82;0.82;;;26.20;78.90;;;;;;5135834;27;20218;-81
2023/07/14 12:39:51;;;;;;;3.38;0.93;;;26.20;76.70;;;;;;5135883;27;20220;-81
2023/07/14 12:42:18;;;;;;;0.70;0.70;;;26.10;76.80;;;;;;5135869;27;20195;-82
2023/07/14 12:44:46;;;;;;;0.95;0.90;;;26.20;78.10;;;;;;5135739;27;20229;-82
2023/07/14 12:47:16;;;;;;;0.70;0.70;;;26.20;77.90;;;;;;5135778;27;20212;-81
2023/07/14 12:49:46;;;;;;;0.70;0.70;;;26.20;78.00;;;;;;5135528;27;20227;-78
2023/07/14 12:52:17;;;;;;;2.45;1.00;;;26.20;77.50;;;;;;5135545;27;20180;-78
2023/07/14 12:54:46;;;;;;;1.00;1.00;;;26.20;76.40;;;;;;5135425;27;20682;-78
2023/07/14 12:57:16;;;;;;;2.08;0.88;;;26.20;76.40;;;;;;5136177;27;20220;-78
2023/07/14 12:59:47;;;;;;;1.65;1.20;;;26.30;76.20;;;;;;5135701;27;20216;-78
2023/07/14 13:02:14;;;;;;;0.77;0.70;;;26.30;75.50;;;;;;5135099;27;20231;-79
2023/07/14 13:04:41;;;;;;;1.02;0.77;;;26.30;75.90;;;;;;5135434;27;20214;-78
2023/07/14 13:07:14;;;;;;;5.10;0.80;;;26.20;78.00;;;;;;5134621;27;20203;-78